sensor_id;sensor_type;location;lat;lon;timestamp;temperature;humidity
38020;DHT22;23829;51.350;17.286;2022-11-18T00:00:49;19.20;32.90
38020;DHT22;23829;51.350;17.286;2022-11-18T00:03:16;19.30;33.00
38020;DHT22;23829;51.350;17.286;2022-11-18T00:05:50;19.40;33.00
38020;DHT22;23829;51.350;17.286;2022-11-18T00:08:17;19.40;32.70
38020;DHT22;23829;51.350;17.286;2022-11-18T00:10:44;19.40;32.70
38020;DHT22;23829;51.350;17.286;2022-11-18T00:13:11;19.50;32.50
38020;DHT22;23829;51.350;17.286;2022-11-18T00:16:04;19.40;32.70
38020;DHT22;23829;51.350;17.286;2022-11-18T00:18:30;19.50;32.60
38020;DHT22;23829;51.350;17.286;2022-11-18T00:21:08;19.50;32.60
38020;DHT22;23829;51.350;17.286;2022-11-18T00:23:35;19.80;32.00
38020;DHT22;23829;51.350;17.286;2022-11-18T00:26:07;19.60;32.30
38020;DHT22;23829;51.350;17.286;2022-11-18T00:28:34;19.30;32.70
38020;DHT22;23829;51.350;17.286;2022-11-18T00:31:11;19.20;32.90
38020;DHT22;23829;51.350;17.286;2022-11-18T00:33:38;19.30;33.00
38020;DHT22;23829;51.350;17.286;2022-11-18T00:36:08;19.30;32.80
38020;DHT22;23829;51.350;17.286;2022-11-18T00:38:35;19.30;32.80
38020;DHT22;23829;51.350;17.286;2022-11-18T00:41:12;19.30;32.80
38020;DHT22;23829;51.350;17.286;2022-11-18T00:43:40;19.20;32.80
38020;DHT22;23829;51.350;17.286;2022-11-18T00:46:09;19.20;32.70
38020;DHT22;23829;51.350;17.286;2022-11-18T00:48:36;19.20;32.80
38020;DHT22;23829;51.350;17.286;2022-11-18T00:51:15;18.90;33.20
38020;DHT22;23829;51.350;17.286;2022-11-18T00:53:42;19.00;33.40
38020;DHT22;23829;51.350;17.286;2022-11-18T00:56:08;19.10;33.30
38020;DHT22;23829;51.350;17.286;2022-11-18T00:58:36;19.10;33.30
38020;DHT22;23829;51.350;17.286;2022-11-18T01:01:02;19.10;33.30
38020;DHT22;23829;51.350;17.286;2022-11-18T01:03:29;19.10;33.30
38020;DHT22;23829;51.350;17.286;2022-11-18T01:05:56;19.20;33.20
38020;DHT22;23829;51.350;17.286;2022-11-18T01:08:23;19.40;33.00
38020;DHT22;23829;51.350;17.286;2022-11-18T01:10:49;19.40;32.90
38020;DHT22;23829;51.350;17.286;2022-11-18T01:13:18;19.50;33.00
38020;DHT22;23829;51.350;17.286;2022-11-18T01:15:54;19.60;32.90
38020;DHT22;23829;51.350;17.286;2022-11-18T01:18:25;19.60;32.70
38020;DHT22;23829;51.350;17.286;2022-11-18T01:20:52;19.70;32.60
38020;DHT22;23829;51.350;17.286;2022-11-18T01:23:19;19.60;32.30
38020;DHT22;23829;51.350;17.286;2022-11-18T01:25:48;19.50;32.50
38020;DHT22;23829;51.350;17.286;2022-11-18T01:28:15;19.40;32.60
38020;DHT22;23829;51.350;17.286;2022-11-18T01:30:42;19.40;32.70
38020;DHT22;23829;51.350;17.286;2022-11-18T01:33:09;19.30;33.00
38020;DHT22;23829;51.350;17.286;2022-11-18T01:35:37;19.40;32.90
38020;DHT22;23829;51.350;17.286;2022-11-18T01:38:04;19.50;32.90
38020;DHT22;23829;51.350;17.286;2022-11-18T01:40:31;19.80;32.00
38020;DHT22;23829;51.350;17.286;2022-11-18T01:42:58;19.60;32.30
38020;DHT22;23829;51.350;17.286;2022-11-18T01:50:51;19.50;32.20
38020;DHT22;23829;51.350;17.286;2022-11-18T01:53:22;19.50;32.60
38020;DHT22;23829;51.350;17.286;2022-11-18T01:55:53;19.40;32.70
38020;DHT22;23829;51.350;17.286;2022-11-18T01:58:26;19.40;32.80
38020;DHT22;23829;51.350;17.286;2022-11-18T02:00:55;19.40;32.70
38020;DHT22;23829;51.350;17.286;2022-11-18T02:03:21;19.40;32.60
38020;DHT22;23829;51.350;17.286;2022-11-18T02:05:51;19.50;32.50
38020;DHT22;23829;51.350;17.286;2022-11-18T02:08:18;19.50;32.30
38020;DHT22;23829;51.350;17.286;2022-11-18T02:10:45;19.50;32.30
38020;DHT22;23829;51.350;17.286;2022-11-18T02:13:12;19.50;32.40
38020;DHT22;23829;51.350;17.286;2022-11-18T02:15:59;19.50;32.50
38020;DHT22;23829;51.350;17.286;2022-11-18T02:18:54;19.50;32.30
38020;DHT22;23829;51.350;17.286;2022-11-18T02:24:46;19.40;32.50
38020;DHT22;23829;51.350;17.286;2022-11-18T02:29:48;19.10;32.70
38020;DHT22;23829;51.350;17.286;2022-11-18T02:32:18;18.90;32.90
38020;DHT22;23829;51.350;17.286;2022-11-18T02:35:16;19.00;33.00
38020;DHT22;23829;51.350;17.286;2022-11-18T02:40:36;18.70;33.30
38020;DHT22;23829;51.350;17.286;2022-11-18T02:45:38;18.80;32.90
38020;DHT22;23829;51.350;17.286;2022-11-18T02:48:09;18.90;33.00
38020;DHT22;23829;51.350;17.286;2022-11-18T02:50:37;18.70;33.10
38020;DHT22;23829;51.350;17.286;2022-11-18T02:53:06;19.00;32.70
38020;DHT22;23829;51.350;17.286;2022-11-18T02:55:34;18.80;32.70
38020;DHT22;23829;51.350;17.286;2022-11-18T02:58:03;18.80;32.60
38020;DHT22;23829;51.350;17.286;2022-11-18T03:00:31;18.60;33.00
38020;DHT22;23829;51.350;17.286;2022-11-18T03:02:58;18.70;33.40
38020;DHT22;23829;51.350;17.286;2022-11-18T03:08:38;18.40;33.20
38020;DHT22;23829;51.350;17.286;2022-11-18T03:11:20;18.10;33.50
38020;DHT22;23829;51.350;17.286;2022-11-18T03:14:05;17.70;34.00
38020;DHT22;23829;51.350;17.286;2022-11-18T03:16:59;17.80;34.20
38020;DHT22;23829;51.350;17.286;2022-11-18T03:19:28;17.80;34.10
38020;DHT22;23829;51.350;17.286;2022-11-18T03:22:07;18.00;33.60
38020;DHT22;23829;51.350;17.286;2022-11-18T03:24:40;18.00;33.30
38020;DHT22;23829;51.350;17.286;2022-11-18T03:27:14;18.20;33.40
38020;DHT22;23829;51.350;17.286;2022-11-18T03:29:48;18.20;33.20
38020;DHT22;23829;51.350;17.286;2022-11-18T03:32:23;18.30;32.80
38020;DHT22;23829;51.350;17.286;2022-11-18T03:34:56;17.80;33.70
38020;DHT22;23829;51.350;17.286;2022-11-18T03:37:26;17.90;33.70
38020;DHT22;23829;51.350;17.286;2022-11-18T03:39:57;18.10;33.30
38020;DHT22;23829;51.350;17.286;2022-11-18T03:42:34;18.10;33.20
38020;DHT22;23829;51.350;17.286;2022-11-18T03:45:06;18.10;33.30
38020;DHT22;23829;51.350;17.286;2022-11-18T03:47:39;18.30;33.00
38020;DHT22;23829;51.350;17.286;2022-11-18T03:52:42;18.30;32.70
38020;DHT22;23829;51.350;17.286;2022-11-18T03:55:17;18.10;32.90
38020;DHT22;23829;51.350;17.286;2022-11-18T03:57:48;18.10;33.20
38020;DHT22;23829;51.350;17.286;2022-11-18T04:00:16;17.90;33.00
38020;DHT22;23829;51.350;17.286;2022-11-18T04:02:46;17.70;33.10
38020;DHT22;23829;51.350;17.286;2022-11-18T04:05:16;18.20;32.30
38020;DHT22;23829;51.350;17.286;2022-11-18T04:08:00;18.20;32.30
38020;DHT22;23829;51.350;17.286;2022-11-18T04:11:08;18.10;32.40
38020;DHT22;23829;51.350;17.286;2022-11-18T04:13:36;17.90;32.50
38020;DHT22;23829;51.350;17.286;2022-11-18T04:16:05;17.70;33.60
38020;DHT22;23829;51.350;17.286;2022-11-18T04:18:32;17.70;32.70
38020;DHT22;23829;51.350;17.286;2022-11-18T04:20:59;18.20;32.10
38020;DHT22;23829;51.350;17.286;2022-11-18T04:23:25;17.70;32.40
38020;DHT22;23829;51.350;17.286;2022-11-18T04:25:51;17.30;32.80
38020;DHT22;23829;51.350;17.286;2022-11-18T04:28:17;17.30;33.00
38020;DHT22;23829;51.350;17.286;2022-11-18T04:30:44;17.30;33.10
38020;DHT22;23829;51.350;17.286;2022-11-18T04:33:10;17.30;33.10
38020;DHT22;23829;51.350;17.286;2022-11-18T04:35:37;17.50;32.50
38020;DHT22;23829;51.350;17.286;2022-11-18T04:38:03;17.00;33.10
38020;DHT22;23829;51.350;17.286;2022-11-18T04:40:29;16.90;33.40
38020;DHT22;23829;51.350;17.286;2022-11-18T04:42:55;17.30;32.80
38020;DHT22;23829;51.350;17.286;2022-11-18T04:45:22;17.20;32.60
38020;DHT22;23829;51.350;17.286;2022-11-18T04:47:48;16.80;33.20
38020;DHT22;23829;51.350;17.286;2022-11-18T04:50:15;17.00;33.00
38020;DHT22;23829;51.350;17.286;2022-11-18T04:52:41;17.00;33.10
38020;DHT22;23829;51.350;17.286;2022-11-18T04:55:08;16.60;33.50
38020;DHT22;23829;51.350;17.286;2022-11-18T04:57:34;16.70;33.60
38020;DHT22;23829;51.350;17.286;2022-11-18T05:00:00;16.90;33.40
38020;DHT22;23829;51.350;17.286;2022-11-18T05:02:27;17.10;32.90
38020;DHT22;23829;51.350;17.286;2022-11-18T05:04:53;17.30;32.80
38020;DHT22;23829;51.350;17.286;2022-11-18T05:07:19;17.00;32.90
38020;DHT22;23829;51.350;17.286;2022-11-18T05:09:46;16.80;33.40
38020;DHT22;23829;51.350;17.286;2022-11-18T05:12:13;16.80;33.30
38020;DHT22;23829;51.350;17.286;2022-11-18T05:14:59;17.30;32.70
38020;DHT22;23829;51.350;17.286;2022-11-18T05:17:25;17.20;32.40
38020;DHT22;23829;51.350;17.286;2022-11-18T05:19:51;16.50;33.40
38020;DHT22;23829;51.350;17.286;2022-11-18T05:22:18;16.20;33.90
38020;DHT22;23829;51.350;17.286;2022-11-18T05:24:44;15.90;34.40
38020;DHT22;23829;51.350;17.286;2022-11-18T05:27:11;15.90;34.30
38020;DHT22;23829;51.350;17.286;2022-11-18T05:29:38;16.40;33.70
38020;DHT22;23829;51.350;17.286;2022-11-18T05:32:04;16.10;33.90
38020;DHT22;23829;51.350;17.286;2022-11-18T05:34:31;16.40;33.60
38020;DHT22;23829;51.350;17.286;2022-11-18T05:36:57;16.60;33.40
38020;DHT22;23829;51.350;17.286;2022-11-18T05:39:24;16.70;33.20
38020;DHT22;23829;51.350;17.286;2022-11-18T05:41:51;16.80;33.00
38020;DHT22;23829;51.350;17.286;2022-11-18T05:44:36;16.00;33.60
38020;DHT22;23829;51.350;17.286;2022-11-18T05:47:02;15.90;34.30
38020;DHT22;23829;51.350;17.286;2022-11-18T05:49:29;16.40;33.50
38020;DHT22;23829;51.350;17.286;2022-11-18T05:51:55;16.40;33.20
38020;DHT22;23829;51.350;17.286;2022-11-18T05:54:22;16.80;33.00
38020;DHT22;23829;51.350;17.286;2022-11-18T05:56:48;17.00;32.70
38020;DHT22;23829;51.350;17.286;2022-11-18T05:59:15;17.10;32.40
38020;DHT22;23829;51.350;17.286;2022-11-18T06:01:55;17.20;32.20
38020;DHT22;23829;51.350;17.286;2022-11-18T06:07:07;16.90;32.40
38020;DHT22;23829;51.350;17.286;2022-11-18T06:09:37;17.20;32.10
38020;DHT22;23829;51.350;17.286;2022-11-18T06:12:06;17.50;31.50
38020;DHT22;23829;51.350;17.286;2022-11-18T06:14:43;17.40;31.60
38020;DHT22;23829;51.350;17.286;2022-11-18T06:17:23;17.20;31.80
38020;DHT22;23829;51.350;17.286;2022-11-18T06:19:51;17.10;31.80
38020;DHT22;23829;51.350;17.286;2022-11-18T06:22:18;16.90;31.90
38020;DHT22;23829;51.350;17.286;2022-11-18T06:24:44;16.70;32.20
38020;DHT22;23829;51.350;17.286;2022-11-18T06:27:11;16.80;32.50
38020;DHT22;23829;51.350;17.286;2022-11-18T06:29:38;17.00;32.00
38020;DHT22;23829;51.350;17.286;2022-11-18T06:32:05;17.10;31.70
38020;DHT22;23829;51.350;17.286;2022-11-18T06:34:32;17.30;31.50
38020;DHT22;23829;51.350;17.286;2022-11-18T06:36:58;17.40;31.20
38020;DHT22;23829;51.350;17.286;2022-11-18T06:39:24;17.30;31.40
38020;DHT22;23829;51.350;17.286;2022-11-18T06:41:54;17.00;31.70
38020;DHT22;23829;51.350;17.286;2022-11-18T06:44:20;17.30;31.30
38020;DHT22;23829;51.350;17.286;2022-11-18T06:46:46;17.10;31.40
38020;DHT22;23829;51.350;17.286;2022-11-18T06:49:26;16.90;31.20
38020;DHT22;23829;51.350;17.286;2022-11-18T06:51:53;16.90;31.50
38020;DHT22;23829;51.350;17.286;2022-11-18T06:54:20;16.70;31.70
38020;DHT22;23829;51.350;17.286;2022-11-18T06:56:47;16.80;31.40
38020;DHT22;23829;51.350;17.286;2022-11-18T06:59:13;16.60;31.60
38020;DHT22;23829;51.350;17.286;2022-11-18T07:01:40;16.30;31.90
38020;DHT22;23829;51.350;17.286;2022-11-18T07:04:09;16.30;32.00
38020;DHT22;23829;51.350;17.286;2022-11-18T07:06:35;16.30;31.80
38020;DHT22;23829;51.350;17.286;2022-11-18T07:09:05;16.50;31.10
38020;DHT22;23829;51.350;17.286;2022-11-18T07:11:31;16.40;31.60
38020;DHT22;23829;51.350;17.286;2022-11-18T07:13:59;16.50;31.40
38020;DHT22;23829;51.350;17.286;2022-11-18T07:16:26;16.70;31.10
38020;DHT22;23829;51.350;17.286;2022-11-18T07:18:54;17.30;30.20
38020;DHT22;23829;51.350;17.286;2022-11-18T07:21:25;17.30;30.00
38020;DHT22;23829;51.350;17.286;2022-11-18T07:23:53;17.40;30.30
38020;DHT22;23829;51.350;17.286;2022-11-18T07:26:20;16.80;30.50
38020;DHT22;23829;51.350;17.286;2022-11-18T07:28:47;17.00;30.00
38020;DHT22;23829;51.350;17.286;2022-11-18T07:31:15;16.70;30.50
38020;DHT22;23829;51.350;17.286;2022-11-18T07:33:43;16.90;30.30
38020;DHT22;23829;51.350;17.286;2022-11-18T07:36:15;17.20;30.00
38020;DHT22;23829;51.350;17.286;2022-11-18T07:38:43;17.10;29.90
38020;DHT22;23829;51.350;17.286;2022-11-18T07:41:12;16.70;30.20
38020;DHT22;23829;51.350;17.286;2022-11-18T07:43:39;17.00;30.30
38020;DHT22;23829;51.350;17.286;2022-11-18T07:46:12;16.80;29.90
38020;DHT22;23829;51.350;17.286;2022-11-18T07:48:41;16.60;30.00
38020;DHT22;23829;51.350;17.286;2022-11-18T07:51:08;16.90;29.90
38020;DHT22;23829;51.350;17.286;2022-11-18T07:53:35;16.80;29.90
38020;DHT22;23829;51.350;17.286;2022-11-18T07:56:03;16.70;30.00
38020;DHT22;23829;51.350;17.286;2022-11-18T07:58:30;16.90;30.00
38020;DHT22;23829;51.350;17.286;2022-11-18T08:00:56;17.00;30.00
38020;DHT22;23829;51.350;17.286;2022-11-18T08:03:26;17.10;30.10
38020;DHT22;23829;51.350;17.286;2022-11-18T08:06:00;16.70;30.00
38020;DHT22;23829;51.350;17.286;2022-11-18T08:08:26;16.60;30.00
38020;DHT22;23829;51.350;17.286;2022-11-18T08:10:57;16.10;30.40
38020;DHT22;23829;51.350;17.286;2022-11-18T08:13:25;16.40;30.00
38020;DHT22;23829;51.350;17.286;2022-11-18T08:15:52;16.10;30.00
38020;DHT22;23829;51.350;17.286;2022-11-18T08:18:19;15.50;31.00
38020;DHT22;23829;51.350;17.286;2022-11-18T08:20:46;15.30;31.50
38020;DHT22;23829;51.350;17.286;2022-11-18T08:23:14;15.70;31.00
38020;DHT22;23829;51.350;17.286;2022-11-18T08:25:42;15.90;30.50
38020;DHT22;23829;51.350;17.286;2022-11-18T08:28:09;16.20;30.20
38020;DHT22;23829;51.350;17.286;2022-11-18T08:30:36;16.40;29.90
38020;DHT22;23829;51.350;17.286;2022-11-18T08:33:03;16.20;29.80
38020;DHT22;23829;51.350;17.286;2022-11-18T08:35:30;16.30;29.70
38020;DHT22;23829;51.350;17.286;2022-11-18T08:37:58;16.20;29.80
38020;DHT22;23829;51.350;17.286;2022-11-18T08:40:24;16.10;29.80
38020;DHT22;23829;51.350;17.286;2022-11-18T08:42:51;15.70;30.20
38020;DHT22;23829;51.350;17.286;2022-11-18T08:45:17;15.70;30.10
38020;DHT22;23829;51.350;17.286;2022-11-18T08:47:44;15.60;30.40
38020;DHT22;23829;51.350;17.286;2022-11-18T08:50:10;15.60;30.60
38020;DHT22;23829;51.350;17.286;2022-11-18T08:52:37;15.90;30.30
38020;DHT22;23829;51.350;17.286;2022-11-18T08:55:04;16.20;30.00
38020;DHT22;23829;51.350;17.286;2022-11-18T08:57:30;16.50;29.80
38020;DHT22;23829;51.350;17.286;2022-11-18T08:59:57;16.90;29.20
38020;DHT22;23829;51.350;17.286;2022-11-18T09:02:23;17.00;29.10
38020;DHT22;23829;51.350;17.286;2022-11-18T09:04:51;16.80;29.00
38020;DHT22;23829;51.350;17.286;2022-11-18T09:07:19;16.80;29.30
38020;DHT22;23829;51.350;17.286;2022-11-18T09:09:45;16.60;29.60
38020;DHT22;23829;51.350;17.286;2022-11-18T09:12:12;16.90;29.30
38020;DHT22;23829;51.350;17.286;2022-11-18T09:14:43;17.20;28.80
38020;DHT22;23829;51.350;17.286;2022-11-18T09:17:10;17.10;29.00
38020;DHT22;23829;51.350;17.286;2022-11-18T09:19:38;16.90;28.90
38020;DHT22;23829;51.350;17.286;2022-11-18T09:22:05;16.60;29.50
38020;DHT22;23829;51.350;17.286;2022-11-18T09:24:32;16.60;29.30
38020;DHT22;23829;51.350;17.286;2022-11-18T09:27:01;16.70;29.40
38020;DHT22;23829;51.350;17.286;2022-11-18T09:29:28;17.00;28.80
38020;DHT22;23829;51.350;17.286;2022-11-18T09:31:54;17.20;28.90
38020;DHT22;23829;51.350;17.286;2022-11-18T09:34:22;17.30;28.80
38020;DHT22;23829;51.350;17.286;2022-11-18T09:36:49;17.30;28.70
38020;DHT22;23829;51.350;17.286;2022-11-18T09:39:15;17.50;28.60
38020;DHT22;23829;51.350;17.286;2022-11-18T09:41:54;17.60;28.50
38020;DHT22;23829;51.350;17.286;2022-11-18T09:45:00;17.40;28.50
38020;DHT22;23829;51.350;17.286;2022-11-18T09:47:31;17.20;28.90
38020;DHT22;23829;51.350;17.286;2022-11-18T09:50:01;17.60;28.50
38020;DHT22;23829;51.350;17.286;2022-11-18T09:52:30;17.60;28.60
38020;DHT22;23829;51.350;17.286;2022-11-18T09:54:58;17.70;28.70
38020;DHT22;23829;51.350;17.286;2022-11-18T09:57:38;17.70;28.40
38020;DHT22;23829;51.350;17.286;2022-11-18T10:00:25;17.50;28.60
38020;DHT22;23829;51.350;17.286;2022-11-18T10:03:05;17.40;28.60
38020;DHT22;23829;51.350;17.286;2022-11-18T10:11:38;17.50;29.00
38020;DHT22;23829;51.350;17.286;2022-11-18T10:14:25;17.10;29.10
38020;DHT22;23829;51.350;17.286;2022-11-18T10:19:49;17.30;29.20
38020;DHT22;23829;51.350;17.286;2022-11-18T10:22:28;17.60;29.10
38020;DHT22;23829;51.350;17.286;2022-11-18T10:24:57;17.90;28.60
38020;DHT22;23829;51.350;17.286;2022-11-18T10:27:34;17.60;28.60
38020;DHT22;23829;51.350;17.286;2022-11-18T10:30:13;17.60;28.90
38020;DHT22;23829;51.350;17.286;2022-11-18T10:33:03;17.00;29.50
38020;DHT22;23829;51.350;17.286;2022-11-18T10:35:42;16.90;29.70
38020;DHT22;23829;51.350;17.286;2022-11-18T10:40:58;17.00;30.00
38020;DHT22;23829;51.350;17.286;2022-11-18T10:43:46;16.80;30.00
38020;DHT22;23829;51.350;17.286;2022-11-18T10:46:22;16.50;30.40
38020;DHT22;23829;51.350;17.286;2022-11-18T10:49:14;16.60;30.50
38020;DHT22;23829;51.350;17.286;2022-11-18T10:51:47;16.50;30.70
38020;DHT22;23829;51.350;17.286;2022-11-18T10:54:22;16.80;30.50
38020;DHT22;23829;51.350;17.286;2022-11-18T10:57:19;16.50;30.60
38020;DHT22;23829;51.350;17.286;2022-11-18T10:59:54;16.50;30.80
38020;DHT22;23829;51.350;17.286;2022-11-18T11:02:32;16.60;30.60
38020;DHT22;23829;51.350;17.286;2022-11-18T11:05:15;16.20;31.10
38020;DHT22;23829;51.350;17.286;2022-11-18T11:07:42;16.30;31.50
38020;DHT22;23829;51.350;17.286;2022-11-18T11:13:14;16.50;31.40
38020;DHT22;23829;51.350;17.286;2022-11-18T11:15:38;16.80;31.10
38020;DHT22;23829;51.350;17.286;2022-11-18T11:18:19;16.70;31.10
38020;DHT22;23829;51.350;17.286;2022-11-18T11:21:17;16.80;30.90
38020;DHT22;23829;51.350;17.286;2022-11-18T11:23:45;16.50;31.10
38020;DHT22;23829;51.350;17.286;2022-11-18T11:29:30;16.00;32.30
38020;DHT22;23829;51.350;17.286;2022-11-18T11:32:24;15.80;32.00
38020;DHT22;23829;51.350;17.286;2022-11-18T11:37:51;16.00;32.60
38020;DHT22;23829;51.350;17.286;2022-11-18T11:48:51;15.60;32.20
38020;DHT22;23829;51.350;17.286;2022-11-18T11:51:24;15.70;32.40
38020;DHT22;23829;51.350;17.286;2022-11-18T11:56:37;15.30;32.60
38020;DHT22;23829;51.350;17.286;2022-11-18T12:04:55;16.10;31.30
38020;DHT22;23829;51.350;17.286;2022-11-18T12:07:30;16.00;31.20
38020;DHT22;23829;51.350;17.286;2022-11-18T12:18:57;15.90;31.20
38020;DHT22;23829;51.350;17.286;2022-11-18T12:26:44;15.70;30.60
38020;DHT22;23829;51.350;17.286;2022-11-18T12:31:49;15.50;31.00
38020;DHT22;23829;51.350;17.286;2022-11-18T12:34:27;15.30;31.30
38020;DHT22;23829;51.350;17.286;2022-11-18T12:36:55;15.10;31.60
38020;DHT22;23829;51.350;17.286;2022-11-18T12:41:55;15.30;31.00
38020;DHT22;23829;51.350;17.286;2022-11-18T12:44:41;15.70;30.50
38020;DHT22;23829;51.350;17.286;2022-11-18T12:47:13;15.40;30.50
38020;DHT22;23829;51.350;17.286;2022-11-18T12:55:03;16.00;30.40
38020;DHT22;23829;51.350;17.286;2022-11-18T12:57:40;16.20;30.10
38020;DHT22;23829;51.350;17.286;2022-11-18T13:00:27;16.50;29.90
38020;DHT22;23829;51.350;17.286;2022-11-18T13:02:59;16.60;29.40
38020;DHT22;23829;51.350;17.286;2022-11-18T13:05:28;16.60;29.10
38020;DHT22;23829;51.350;17.286;2022-11-18T13:07:59;17.00;28.50
38020;DHT22;23829;51.350;17.286;2022-11-18T13:13:27;17.10;28.40
38020;DHT22;23829;51.350;17.286;2022-11-18T13:15:54;17.30;28.40
38020;DHT22;23829;51.350;17.286;2022-11-18T13:18:49;17.50;28.00
38020;DHT22;23829;51.350;17.286;2022-11-18T13:21:25;17.60;28.10
38020;DHT22;23829;51.350;17.286;2022-11-18T13:24:15;17.80;28.00
38020;DHT22;23829;51.350;17.286;2022-11-18T13:26:43;17.30;28.20
38020;DHT22;23829;51.350;17.286;2022-11-18T13:29:30;17.70;27.50
38020;DHT22;23829;51.350;17.286;2022-11-18T13:34:52;17.80;27.10
38020;DHT22;23829;51.350;17.286;2022-11-18T13:37:26;17.50;27.40
38020;DHT22;23829;51.350;17.286;2022-11-18T13:39:53;17.60;27.30
38020;DHT22;23829;51.350;17.286;2022-11-18T13:42:22;17.60;27.10
38020;DHT22;23829;51.350;17.286;2022-11-18T13:44:54;17.70;27.00
38020;DHT22;23829;51.350;17.286;2022-11-18T13:52:40;17.60;27.20
38020;DHT22;23829;51.350;17.286;2022-11-18T13:55:23;17.70;27.00
38020;DHT22;23829;51.350;17.286;2022-11-18T13:57:55;17.20;27.70
38020;DHT22;23829;51.350;17.286;2022-11-18T14:00:29;17.60;27.50
38020;DHT22;23829;51.350;17.286;2022-11-18T14:03:03;17.80;27.20
38020;DHT22;23829;51.350;17.286;2022-11-18T14:05:31;18.00;26.80
38020;DHT22;23829;51.350;17.286;2022-11-18T14:08:03;17.90;27.10
38020;DHT22;23829;51.350;17.286;2022-11-18T14:10:38;17.70;27.30
38020;DHT22;23829;51.350;17.286;2022-11-18T14:15:59;17.50;27.20
38020;DHT22;23829;51.350;17.286;2022-11-18T14:18:32;17.80;26.90
38020;DHT22;23829;51.350;17.286;2022-11-18T14:21:01;17.50;27.00
38020;DHT22;23829;51.350;17.286;2022-11-18T14:23:33;17.60;27.20
38020;DHT22;23829;51.350;17.286;2022-11-18T14:26:04;17.80;27.10
38020;DHT22;23829;51.350;17.286;2022-11-18T14:28:35;17.80;26.90
38020;DHT22;23829;51.350;17.286;2022-11-18T14:33:38;18.10;26.60
38020;DHT22;23829;51.350;17.286;2022-11-18T14:36:14;18.10;26.60
38020;DHT22;23829;51.350;17.286;2022-11-18T14:38:46;18.10;26.70
38020;DHT22;23829;51.350;17.286;2022-11-18T14:41:17;18.10;26.80
38020;DHT22;23829;51.350;17.286;2022-11-18T14:44:03;18.00;26.60
38020;DHT22;23829;51.350;17.286;2022-11-18T14:46:30;17.60;27.10
38020;DHT22;23829;51.350;17.286;2022-11-18T14:48:57;17.70;27.00
38020;DHT22;23829;51.350;17.286;2022-11-18T14:51:27;17.70;27.20
38020;DHT22;23829;51.350;17.286;2022-11-18T14:53:53;17.80;27.10
38020;DHT22;23829;51.350;17.286;2022-11-18T14:56:24;17.80;27.10
38020;DHT22;23829;51.350;17.286;2022-11-18T14:58:51;17.80;27.30
38020;DHT22;23829;51.350;17.286;2022-11-18T15:01:18;17.90;26.90
38020;DHT22;23829;51.350;17.286;2022-11-18T15:03:45;18.00;27.00
38020;DHT22;23829;51.350;17.286;2022-11-18T15:06:13;17.50;27.30
38020;DHT22;23829;51.350;17.286;2022-11-18T15:08:41;17.30;27.60
38020;DHT22;23829;51.350;17.286;2022-11-18T15:11:09;17.50;27.50
38020;DHT22;23829;51.350;17.286;2022-11-18T15:13:36;17.90;26.90
38020;DHT22;23829;51.350;17.286;2022-11-18T15:18:44;17.50;27.40
38020;DHT22;23829;51.350;17.286;2022-11-18T15:21:12;17.60;27.50
38020;DHT22;23829;51.350;17.286;2022-11-18T15:23:38;17.50;27.50
38020;DHT22;23829;51.350;17.286;2022-11-18T15:26:16;17.80;27.50
38020;DHT22;23829;51.350;17.286;2022-11-18T15:28:44;17.20;27.80
38020;DHT22;23829;51.350;17.286;2022-11-18T15:31:11;17.20;28.10
38020;DHT22;23829;51.350;17.286;2022-11-18T15:33:37;17.60;27.70
38020;DHT22;23829;51.350;17.286;2022-11-18T15:36:04;17.50;27.60
38020;DHT22;23829;51.350;17.286;2022-11-18T15:38:34;17.80;27.70
38020;DHT22;23829;51.350;17.286;2022-11-18T15:41:01;18.20;27.00
38020;DHT22;23829;51.350;17.286;2022-11-18T15:43:27;18.10;26.90
38020;DHT22;23829;51.350;17.286;2022-11-18T15:45:57;18.10;27.20
38020;DHT22;23829;51.350;17.286;2022-11-18T15:48:24;18.10;27.20
38020;DHT22;23829;51.350;17.286;2022-11-18T15:50:50;18.00;27.10
38020;DHT22;23829;51.350;17.286;2022-11-18T15:53:16;18.30;26.90
38020;DHT22;23829;51.350;17.286;2022-11-18T15:55:43;18.30;26.80
38020;DHT22;23829;51.350;17.286;2022-11-18T15:58:09;18.20;26.90
38020;DHT22;23829;51.350;17.286;2022-11-18T16:00:36;17.80;27.30
38020;DHT22;23829;51.350;17.286;2022-11-18T16:03:02;18.10;27.10
38020;DHT22;23829;51.350;17.286;2022-11-18T16:05:29;17.80;27.20
38020;DHT22;23829;51.350;17.286;2022-11-18T16:07:55;17.80;27.40
38020;DHT22;23829;51.350;17.286;2022-11-18T16:10:21;17.90;27.40
38020;DHT22;23829;51.350;17.286;2022-11-18T16:13:19;17.70;27.50
38020;DHT22;23829;51.350;17.286;2022-11-18T16:15:46;17.60;27.50
38020;DHT22;23829;51.350;17.286;2022-11-18T16:18:15;17.80;27.60
38020;DHT22;23829;51.350;17.286;2022-11-18T16:20:43;17.80;27.50
38020;DHT22;23829;51.350;17.286;2022-11-18T16:23:09;17.80;27.60
38020;DHT22;23829;51.350;17.286;2022-11-18T16:25:35;17.80;27.60
38020;DHT22;23829;51.350;17.286;2022-11-18T16:28:07;17.80;27.70
38020;DHT22;23829;51.350;17.286;2022-11-18T16:30:34;17.80;27.60
38020;DHT22;23829;51.350;17.286;2022-11-18T16:33:19;18.00;27.70
38020;DHT22;23829;51.350;17.286;2022-11-18T16:35:46;18.10;27.60
38020;DHT22;23829;51.350;17.286;2022-11-18T16:38:13;18.20;28.00
38020;DHT22;23829;51.350;17.286;2022-11-18T16:40:39;18.20;28.80
38020;DHT22;23829;51.350;17.286;2022-11-18T16:43:06;18.40;28.50
38020;DHT22;23829;51.350;17.286;2022-11-18T16:45:32;18.60;27.40
38020;DHT22;23829;51.350;17.286;2022-11-18T16:47:58;18.50;27.40
38020;DHT22;23829;51.350;17.286;2022-11-18T16:50:25;18.50;27.70
38020;DHT22;23829;51.350;17.286;2022-11-18T16:52:51;18.40;27.50
38020;DHT22;23829;51.350;17.286;2022-11-18T16:55:18;18.40;27.70
38020;DHT22;23829;51.350;17.286;2022-11-18T16:57:44;18.40;28.10
38020;DHT22;23829;51.350;17.286;2022-11-18T17:00:11;18.50;28.50
38020;DHT22;23829;51.350;17.286;2022-11-18T17:02:38;18.70;28.20
38020;DHT22;23829;51.350;17.286;2022-11-18T17:05:04;18.60;27.40
38020;DHT22;23829;51.350;17.286;2022-11-18T17:07:31;18.60;27.40
38020;DHT22;23829;51.350;17.286;2022-11-18T17:09:57;18.60;28.00
38020;DHT22;23829;51.350;17.286;2022-11-18T17:12:24;18.60;28.40
38020;DHT22;23829;51.350;17.286;2022-11-18T17:14:50;18.60;28.60
38020;DHT22;23829;51.350;17.286;2022-11-18T17:17:16;18.60;28.70
38020;DHT22;23829;51.350;17.286;2022-11-18T17:19:43;18.50;28.20
38020;DHT22;23829;51.350;17.286;2022-11-18T17:22:09;18.60;28.60